sensor_id;sensor_type;location;lat;lon;timestamp;P1;durP1;ratioP1;P2;durP2;ratioP2
32760;SDS011;19126;47.472;7.850;2024-03-23T00:54:40;4.38;;;2.47;;
32760;SDS011;19126;47.472;7.850;2024-03-23T00:57:06;2.50;;;2.03;;
32760;SDS011;19126;47.472;7.850;2024-03-23T00:59:33;10.20;;;2.78;;
32760;SDS011;19126;47.472;7.850;2024-03-23T01:01:59;7.45;;;2.70;;
32760;SDS011;19126;47.472;7.850;2024-03-23T01:04:26;4.22;;;2.22;;
32760;SDS011;19126;47.472;7.850;2024-03-23T01:06:53;2.33;;;2.13;;
32760;SDS011;19126;47.472;7.850;2024-03-23T01:09:20;7.43;;;2.75;;
32760;SDS011;19126;47.472;7.850;2024-03-23T01:11:49;8.55;;;2.65;;
32760;SDS011;19126;47.472;7.850;2024-03-23T01:14:16;4.18;;;2.47;;
32760;SDS011;19126;47.472;7.850;2024-03-23T01:16:42;4.43;;;2.75;;
32760;SDS011;19126;47.472;7.850;2024-03-23T01:19:09;7.53;;;3.03;;
32760;SDS011;19126;47.472;7.850;2024-03-23T01:21:35;4.07;;;2.50;;
32760;SDS011;19126;47.472;7.850;2024-03-23T01:24:02;3.05;;;2.40;;
32760;SDS011;19126;47.472;7.850;2024-03-23T01:26:29;5.90;;;2.45;;
32760;SDS011;19126;47.472;7.850;2024-03-23T01:28:57;5.20;;;2.38;;
32760;SDS011;19126;47.472;7.850;2024-03-23T01:31:23;4.57;;;2.58;;
32760;SDS011;19126;47.472;7.850;2024-03-23T01:33:50;5.20;;;2.70;;
32760;SDS011;19126;47.472;7.850;2024-03-23T01:36:17;3.75;;;2.22;;
32760;SDS011;19126;47.472;7.850;2024-03-23T01:38:44;9.95;;;2.83;;
32760;SDS011;19126;47.472;7.850;2024-03-23T01:41:10;6.45;;;2.60;;
32760;SDS011;19126;47.472;7.850;2024-03-23T01:43:38;5.55;;;2.70;;
32760;SDS011;19126;47.472;7.850;2024-03-23T01:46:05;4.70;;;2.55;;
32760;SDS011;19126;47.472;7.850;2024-03-23T01:48:33;8.40;;;2.70;;
32760;SDS011;19126;47.472;7.850;2024-03-23T01:50:59;2.70;;;2.45;;
32760;SDS011;19126;47.472;7.850;2024-03-23T01:53:27;3.10;;;2.58;;
32760;SDS011;19126;47.472;7.850;2024-03-23T01:55:53;10.27;;;2.83;;
32760;SDS011;19126;47.472;7.850;2024-03-23T01:58:22;6.93;;;2.97;;
32760;SDS011;19126;47.472;7.850;2024-03-23T02:00:48;7.68;;;2.50;;
32760;SDS011;19126;47.472;7.850;2024-03-23T02:03:23;4.50;;;2.83;;
32760;SDS011;19126;47.472;7.850;2024-03-23T02:05:49;4.53;;;2.45;;
32760;SDS011;19126;47.472;7.850;2024-03-23T02:08:18;3.70;;;2.38;;
32760;SDS011;19126;47.472;7.850;2024-03-23T02:10:47;5.10;;;2.38;;
32760;SDS011;19126;47.472;7.850;2024-03-23T02:13:14;4.22;;;2.17;;
32760;SDS011;19126;47.472;7.850;2024-03-23T02:15:42;4.70;;;2.80;;
32760;SDS011;19126;47.472;7.850;2024-03-23T02:18:10;3.83;;;2.55;;
32760;SDS011;19126;47.472;7.850;2024-03-23T02:20:38;3.25;;;2.60;;
32760;SDS011;19126;47.472;7.850;2024-03-23T02:23:10;7.75;;;4.28;;
32760;SDS011;19126;47.472;7.850;2024-03-23T02:25:39;8.02;;;3.70;;
32760;SDS011;19126;47.472;7.850;2024-03-23T02:28:06;5.35;;;3.50;;
32760;SDS011;19126;47.472;7.850;2024-03-23T02:30:34;5.20;;;4.35;;
32760;SDS011;19126;47.472;7.850;2024-03-23T02:33:00;8.63;;;4.65;;
32760;SDS011;19126;47.472;7.850;2024-03-23T02:35:28;8.88;;;3.60;;
32760;SDS011;19126;47.472;7.850;2024-03-23T02:37:54;10.43;;;3.35;;
32760;SDS011;19126;47.472;7.850;2024-03-23T02:40:23;6.78;;;3.80;;
32760;SDS011;19126;47.472;7.850;2024-03-23T02:42:50;5.50;;;4.07;;
32760;SDS011;19126;47.472;7.850;2024-03-23T02:45:17;6.47;;;3.92;;
32760;SDS011;19126;47.472;7.850;2024-03-23T02:47:43;10.80;;;4.00;;
32760;SDS011;19126;47.472;7.850;2024-03-23T02:50:11;5.55;;;4.00;;
32760;SDS011;19126;47.472;7.850;2024-03-23T02:52:37;7.00;;;4.38;;
32760;SDS011;19126;47.472;7.850;2024-03-23T02:55:04;9.48;;;3.38;;
32760;SDS011;19126;47.472;7.850;2024-03-23T02:57:32;5.35;;;3.47;;
32760;SDS011;19126;47.472;7.850;2024-03-23T02:59:59;5.32;;;3.17;;
32760;SDS011;19126;47.472;7.850;2024-03-23T03:02:25;5.20;;;4.00;;
32760;SDS011;19126;47.472;7.850;2024-03-23T03:04:52;6.90;;;3.50;;
32760;SDS011;19126;47.472;7.850;2024-03-23T03:07:19;5.93;;;3.45;;
32760;SDS011;19126;47.472;7.850;2024-03-23T03:09:46;6.72;;;3.15;;
32760;SDS011;19126;47.472;7.850;2024-03-23T03:12:12;11.40;;;4.05;;
32760;SDS011;19126;47.472;7.850;2024-03-23T03:14:40;5.65;;;3.67;;
32760;SDS011;19126;47.472;7.850;2024-03-23T03:17:09;7.63;;;3.70;;
32760;SDS011;19126;47.472;7.850;2024-03-23T03:19:36;6.38;;;3.60;;
32760;SDS011;19126;47.472;7.850;2024-03-23T03:22:02;5.50;;;3.50;;
32760;SDS011;19126;47.472;7.850;2024-03-23T03:24:30;5.25;;;3.25;;
32760;SDS011;19126;47.472;7.850;2024-03-23T03:26:56;8.10;;;3.40;;
32760;SDS011;19126;47.472;7.850;2024-03-23T03:29:23;10.13;;;4.18;;
32760;SDS011;19126;47.472;7.850;2024-03-23T03:31:51;8.10;;;4.03;;
32760;SDS011;19126;47.472;7.850;2024-03-23T03:34:18;6.13;;;3.70;;
32760;SDS011;19126;47.472;7.850;2024-03-23T03:36:44;8.75;;;3.53;;
32760;SDS011;19126;47.472;7.850;2024-03-23T03:39:11;9.18;;;3.35;;
32760;SDS011;19126;47.472;7.850;2024-03-23T03:41:37;10.20;;;3.70;;
32760;SDS011;19126;47.472;7.850;2024-03-23T03:44:04;4.93;;;3.65;;
32760;SDS011;19126;47.472;7.850;2024-03-23T03:46:31;10.63;;;3.78;;
32760;SDS011;19126;47.472;7.850;2024-03-23T03:48:59;7.88;;;3.58;;
32760;SDS011;19126;47.472;7.850;2024-03-23T03:51:26;5.03;;;3.50;;
32760;SDS011;19126;47.472;7.850;2024-03-23T03:53:53;9.35;;;3.67;;
32760;SDS011;19126;47.472;7.850;2024-03-23T03:56:19;5.90;;;3.67;;
32760;SDS011;19126;47.472;7.850;2024-03-23T03:58:47;4.90;;;3.55;;
32760;SDS011;19126;47.472;7.850;2024-03-23T04:01:13;5.13;;;3.88;;
32760;SDS011;19126;47.472;7.850;2024-03-23T04:03:40;4.80;;;3.28;;
32760;SDS011;19126;47.472;7.850;2024-03-23T04:06:10;6.25;;;3.30;;
32760;SDS011;19126;47.472;7.850;2024-03-23T04:08:37;5.05;;;3.63;;
32760;SDS011;19126;47.472;7.850;2024-03-23T04:11:03;5.18;;;3.33;;
32760;SDS011;19126;47.472;7.850;2024-03-23T04:13:30;9.77;;;3.40;;
32760;SDS011;19126;47.472;7.850;2024-03-23T04:15:56;6.20;;;3.47;;
32760;SDS011;19126;47.472;7.850;2024-03-23T04:18:23;8.15;;;3.13;;
32760;SDS011;19126;47.472;7.850;2024-03-23T04:20:50;7.55;;;3.63;;
32760;SDS011;19126;47.472;7.850;2024-03-23T04:23:18;6.80;;;3.38;;
32760;SDS011;19126;47.472;7.850;2024-03-23T04:25:46;11.38;;;3.10;;
32760;SDS011;19126;47.472;7.850;2024-03-23T04:28:13;8.55;;;4.13;;
32760;SDS011;19126;47.472;7.850;2024-03-23T04:30:39;6.07;;;3.67;;
32760;SDS011;19126;47.472;7.850;2024-03-23T04:33:07;12.07;;;3.42;;
32760;SDS011;19126;47.472;7.850;2024-03-23T04:35:33;5.13;;;3.33;;
32760;SDS011;19126;47.472;7.850;2024-03-23T04:38:01;11.25;;;3.65;;
32760;SDS011;19126;47.472;7.850;2024-03-23T04:40:29;8.18;;;3.67;;
32760;SDS011;19126;47.472;7.850;2024-03-23T04:42:57;8.32;;;4.07;;
32760;SDS011;19126;47.472;7.850;2024-03-23T04:45:24;7.30;;;3.47;;
32760;SDS011;19126;47.472;7.850;2024-03-23T04:47:51;4.88;;;2.78;;
32760;SDS011;19126;47.472;7.850;2024-03-23T04:50:18;5.05;;;3.20;;
32760;SDS011;19126;47.472;7.850;2024-03-23T04:52:45;8.35;;;3.90;;
32760;SDS011;19126;47.472;7.850;2024-03-23T04:55:13;11.23;;;3.15;;
32760;SDS011;19126;47.472;7.850;2024-03-23T04:57:41;11.20;;;4.10;;
32760;SDS011;19126;47.472;7.850;2024-03-23T05:00:09;5.25;;;3.60;;
32760;SDS011;19126;47.472;7.850;2024-03-23T05:02:42;8.10;;;3.70;;
32760;SDS011;19126;47.472;7.850;2024-03-23T05:05:11;7.50;;;3.80;;
32760;SDS011;19126;47.472;7.850;2024-03-23T05:07:38;10.27;;;4.93;;
32760;SDS011;19126;47.472;7.850;2024-03-23T05:10:06;8.90;;;4.07;;
32760;SDS011;19126;47.472;7.850;2024-03-23T05:12:36;6.97;;;3.85;;
32760;SDS011;19126;47.472;7.850;2024-03-23T05:15:04;6.60;;;3.83;;
32760;SDS011;19126;47.472;7.850;2024-03-23T05:17:32;7.20;;;4.55;;
32760;SDS011;19126;47.472;7.850;2024-03-23T05:20:01;6.38;;;4.40;;
32760;SDS011;19126;47.472;7.850;2024-03-23T05:22:28;8.55;;;4.68;;
32760;SDS011;19126;47.472;7.850;2024-03-23T05:24:56;18.15;;;6.22;;
32760;SDS011;19126;47.472;7.850;2024-03-23T05:27:22;12.95;;;6.07;;
32760;SDS011;19126;47.472;7.850;2024-03-23T05:29:49;11.63;;;6.75;;
32760;SDS011;19126;47.472;7.850;2024-03-23T05:32:16;12.30;;;6.93;;
32760;SDS011;19126;47.472;7.850;2024-03-23T05:34:44;7.90;;;6.32;;
32760;SDS011;19126;47.472;7.850;2024-03-23T05:37:10;9.55;;;6.80;;
32760;SDS011;19126;47.472;7.850;2024-03-23T05:39:37;10.52;;;6.93;;
32760;SDS011;19126;47.472;7.850;2024-03-23T05:42:03;17.98;;;7.65;;
32760;SDS011;19126;47.472;7.850;2024-03-23T05:44:30;12.13;;;7.80;;
32760;SDS011;19126;47.472;7.850;2024-03-23T05:46:57;11.07;;;7.45;;
32760;SDS011;19126;47.472;7.850;2024-03-23T05:49:25;10.95;;;7.55;;
32760;SDS011;19126;47.472;7.850;2024-03-23T05:51:51;16.27;;;8.18;;
32760;SDS011;19126;47.472;7.850;2024-03-23T05:54:20;11.43;;;7.95;;
32760;SDS011;19126;47.472;7.850;2024-03-23T05:56:46;10.05;;;7.93;;
32760;SDS011;19126;47.472;7.850;2024-03-23T05:59:13;17.17;;;8.43;;
32760;SDS011;19126;47.472;7.850;2024-03-23T06:01:39;13.15;;;7.88;;
32760;SDS011;19126;47.472;7.850;2024-03-23T06:04:06;13.13;;;9.00;;
32760;SDS011;19126;47.472;7.850;2024-03-23T06:06:34;14.07;;;7.97;;
32760;SDS011;19126;47.472;7.850;2024-03-23T06:09:01;11.77;;;8.43;;
32760;SDS011;19126;47.472;7.850;2024-03-23T06:11:28;11.80;;;8.18;;
32760;SDS011;19126;47.472;7.850;2024-03-23T06:13:55;14.05;;;7.95;;
32760;SDS011;19126;47.472;7.850;2024-03-23T06:16:21;12.77;;;8.27;;
32760;SDS011;19126;47.472;7.850;2024-03-23T06:18:49;13.45;;;8.63;;
32760;SDS011;19126;47.472;7.850;2024-03-23T06:21:16;9.82;;;7.25;;
32760;SDS011;19126;47.472;7.850;2024-03-23T06:23:44;11.20;;;6.57;;
32760;SDS011;19126;47.472;7.850;2024-03-23T06:26:16;9.60;;;5.97;;
32760;SDS011;19126;47.472;7.850;2024-03-23T06:28:43;9.00;;;6.15;;
32760;SDS011;19126;47.472;7.850;2024-03-23T06:31:10;12.30;;;6.63;;
32760;SDS011;19126;47.472;7.850;2024-03-23T06:33:37;12.68;;;6.40;;
32760;SDS011;19126;47.472;7.850;2024-03-23T06:36:04;8.45;;;6.00;;
32760;SDS011;19126;47.472;7.850;2024-03-23T06:38:32;11.20;;;5.93;;
32760;SDS011;19126;47.472;7.850;2024-03-23T06:41:00;8.85;;;6.43;;
32760;SDS011;19126;47.472;7.850;2024-03-23T06:43:29;9.68;;;5.70;;
32760;SDS011;19126;47.472;7.850;2024-03-23T06:45:56;6.90;;;5.00;;
32760;SDS011;19126;47.472;7.850;2024-03-23T06:48:23;8.82;;;5.70;;
32760;SDS011;19126;47.472;7.850;2024-03-23T06:50:49;7.28;;;5.38;;
32760;SDS011;19126;47.472;7.850;2024-03-23T06:53:21;13.57;;;5.70;;
32760;SDS011;19126;47.472;7.850;2024-03-23T06:55:50;7.57;;;5.57;;
32760;SDS011;19126;47.472;7.850;2024-03-23T06:58:20;7.85;;;5.60;;
32760;SDS011;19126;47.472;7.850;2024-03-23T07:00:47;8.80;;;5.88;;
32760;SDS011;19126;47.472;7.850;2024-03-23T07:03:14;10.75;;;5.95;;
32760;SDS011;19126;47.472;7.850;2024-03-23T07:05:41;8.57;;;6.00;;
32760;SDS011;19126;47.472;7.850;2024-03-23T07:08:09;7.47;;;5.32;;
32760;SDS011;19126;47.472;7.850;2024-03-23T07:10:35;5.32;;;4.13;;
32760;SDS011;19126;47.472;7.850;2024-03-23T07:13:05;8.82;;;3.75;;
32760;SDS011;19126;47.472;7.850;2024-03-23T07:15:33;3.55;;;2.78;;
32760;SDS011;19126;47.472;7.850;2024-03-23T07:18:00;3.78;;;2.38;;
32760;SDS011;19126;47.472;7.850;2024-03-23T07:20:26;2.60;;;1.73;;
32760;SDS011;19126;47.472;7.850;2024-03-23T07:22:55;4.63;;;1.70;;
32760;SDS011;19126;47.472;7.850;2024-03-23T07:25:22;3.10;;;1.63;;
32760;SDS011;19126;47.472;7.850;2024-03-23T07:27:50;1.15;;;1.05;;
32760;SDS011;19126;47.472;7.850;2024-03-23T07:30:18;0.88;;;0.88;;
32760;SDS011;19126;47.472;7.850;2024-03-23T07:32:46;0.75;;;0.75;;
32760;SDS011;19126;47.472;7.850;2024-03-23T07:35:12;1.55;;;0.90;;
32760;SDS011;19126;47.472;7.850;2024-03-23T07:37:40;1.50;;;0.70;;
32760;SDS011;19126;47.472;7.850;2024-03-23T07:40:07;0.93;;;0.77;;
32760;SDS011;19126;47.472;7.850;2024-03-23T07:42:37;0.80;;;0.60;;
32760;SDS011;19126;47.472;7.850;2024-03-23T07:45:03;1.55;;;0.90;;
32760;SDS011;19126;47.472;7.850;2024-03-23T07:47:31;1.27;;;0.90;;
32760;SDS011;19126;47.472;7.850;2024-03-23T07:49:58;2.65;;;1.00;;
32760;SDS011;19126;47.472;7.850;2024-03-23T07:52:27;8.50;;;2.95;;
32760;SDS011;19126;47.472;7.850;2024-03-23T07:54:54;3.53;;;1.20;;
32760;SDS011;19126;47.472;7.850;2024-03-23T07:57:21;4.93;;;1.17;;
32760;SDS011;19126;47.472;7.850;2024-03-23T07:59:47;4.75;;;1.00;;
32760;SDS011;19126;47.472;7.850;2024-03-23T08:02:14;2.75;;;1.05;;
32760;SDS011;19126;47.472;7.850;2024-03-23T08:04:44;9.73;;;1.85;;
32760;SDS011;19126;47.472;7.850;2024-03-23T08:07:12;6.85;;;1.90;;
32760;SDS011;19126;47.472;7.850;2024-03-23T08:09:38;9.70;;;2.47;;
32760;SDS011;19126;47.472;7.850;2024-03-23T08:12:06;9.55;;;2.25;;
32760;SDS011;19126;47.472;7.850;2024-03-23T08:14:32;4.63;;;1.70;;
32760;SDS011;19126;47.472;7.850;2024-03-23T08:16:59;9.10;;;2.45;;
32760;SDS011;19126;47.472;7.850;2024-03-23T08:19:26;7.95;;;2.38;;
32760;SDS011;19126;47.472;7.850;2024-03-23T08:21:53;5.03;;;2.13;;
32760;SDS011;19126;47.472;7.850;2024-03-23T08:24:21;13.23;;;2.50;;
32760;SDS011;19126;47.472;7.850;2024-03-23T08:26:48;12.05;;;2.03;;
32760;SDS011;19126;47.472;7.850;2024-03-23T08:29:14;15.95;;;2.50;;
32760;SDS011;19126;47.472;7.850;2024-03-23T08:31:41;17.70;;;2.95;;
32760;SDS011;19126;47.472;7.850;2024-03-23T08:34:07;16.90;;;2.80;;
32760;SDS011;19126;47.472;7.850;2024-03-23T08:36:34;11.75;;;2.70;;
32760;SDS011;19126;47.472;7.850;2024-03-23T08:39:00;9.70;;;1.85;;
32760;SDS011;19126;47.472;7.850;2024-03-23T08:41:29;9.27;;;2.60;;
32760;SDS011;19126;47.472;7.850;2024-03-23T08:43:56;7.57;;;3.05;;
32760;SDS011;19126;47.472;7.850;2024-03-23T08:46:26;9.05;;;3.22;;
32760;SDS011;19126;47.472;7.850;2024-03-23T12:35:04;15.73;;;4.13;;
32760;SDS011;19126;47.472;7.850;2024-03-23T12:37:31;62.97;;;7.35;;
32760;SDS011;19126;47.472;7.850;2024-03-23T12:39:58;109.65;;;10.60;;
32760;SDS011;19126;47.472;7.850;2024-03-23T12:47:03;24.90;;;4.18;;
32760;SDS011;19126;47.472;7.850;2024-03-23T12:49:30;215.13;;;16.45;;
32760;SDS011;19126;47.472;7.850;2024-03-23T12:51:57;22.08;;;3.30;;
32760;SDS011;19126;47.472;7.850;2024-03-23T12:54:24;7.47;;;2.08;;
32760;SDS011;19126;47.472;7.850;2024-03-23T12:56:51;10.35;;;1.77;;
32760;SDS011;19126;47.472;7.850;2024-03-23T12:59:18;18.70;;;2.75;;
32760;SDS011;19126;47.472;7.850;2024-03-23T13:01:44;9.70;;;2.17;;
32760;SDS011;19126;47.472;7.850;2024-03-23T13:04:13;10.10;;;2.20;;
32760;SDS011;19126;47.472;7.850;2024-03-23T13:06:39;8.75;;;2.30;;
32760;SDS011;19126;47.472;7.850;2024-03-23T13:09:06;12.95;;;2.05;;
32760;SDS011;19126;47.472;7.850;2024-03-23T13:11:33;9.65;;;2.42;;
32760;SDS011;19126;47.472;7.850;2024-03-23T13:14:00;12.93;;;2.92;;
32760;SDS011;19126;47.472;7.850;2024-03-23T13:16:28;12.98;;;2.72;;
32760;SDS011;19126;47.472;7.850;2024-03-23T13:18:56;10.05;;;2.00;;
32760;SDS011;19126;47.472;7.850;2024-03-23T13:21:23;9.90;;;2.53;;
32760;SDS011;19126;47.472;7.850;2024-03-23T13:23:51;8.75;;;2.28;;
32760;SDS011;19126;47.472;7.850;2024-03-23T13:26:17;17.00;;;2.17;;
32760;SDS011;19126;47.472;7.850;2024-03-23T13:28:44;11.07;;;1.90;;
32760;SDS011;19126;47.472;7.850;2024-03-23T13:31:10;12.45;;;2.42;;
32760;SDS011;19126;47.472;7.850;2024-03-23T13:33:37;14.63;;;2.55;;
32760;SDS011;19126;47.472;7.850;2024-03-23T13:36:04;8.48;;;1.95;;
32760;SDS011;19126;47.472;7.850;2024-03-23T13:38:33;6.93;;;1.63;;
32760;SDS011;19126;47.472;7.850;2024-03-23T13:41:00;5.07;;;1.60;;
32760;SDS011;19126;47.472;7.850;2024-03-23T13:43:29;8.43;;;1.90;;
32760;SDS011;19126;47.472;7.850;2024-03-23T13:45:58;11.18;;;3.58;;
32760;SDS011;19126;47.472;7.850;2024-03-23T13:48:25;10.13;;;1.90;;
32760;SDS011;19126;47.472;7.850;2024-03-23T13:50:57;9.35;;;2.50;;
32760;SDS011;19126;47.472;7.850;2024-03-23T16:30:56;6.38;;;1.52;;
32760;SDS011;19126;47.472;7.850;2024-03-23T16:33:25;11.40;;;1.73;;
32760;SDS011;19126;47.472;7.850;2024-03-23T16:35:56;12.80;;;1.88;;
32760;SDS011;19126;47.472;7.850;2024-03-23T16:38:24;9.50;;;1.80;;
32760;SDS011;19126;47.472;7.850;2024-03-23T16:40:54;7.72;;;2.05;;
32760;SDS011;19126;47.472;7.850;2024-03-23T16:45:53;8.73;;;1.92;;
32760;SDS011;19126;47.472;7.850;2024-03-23T16:48:24;5.32;;;1.45;;
32760;SDS011;19126;47.472;7.850;2024-03-23T16:50:51;6.97;;;1.80;;
32760;SDS011;19126;47.472;7.850;2024-03-23T16:53:19;6.40;;;1.73;;
32760;SDS011;19126;47.472;7.850;2024-03-23T16:55:45;35.42;;;3.70;;
32760;SDS011;19126;47.472;7.850;2024-03-23T16:58:13;12.95;;;1.70;;
32760;SDS011;19126;47.472;7.850;2024-03-23T17:00:39;9.40;;;1.92;;
32760;SDS011;19126;47.472;7.850;2024-03-23T17:03:07;10.48;;;2.03;;
32760;SDS011;19126;47.472;7.850;2024-03-23T17:05:36;12.60;;;2.10;;
32760;SDS011;19126;47.472;7.850;2024-03-23T17:08:04;4.03;;;1.60;;
32760;SDS011;19126;47.472;7.850;2024-03-23T17:10:31;6.15;;;1.90;;
32760;SDS011;19126;47.472;7.850;2024-03-23T17:12:59;6.95;;;1.55;;
32760;SDS011;19126;47.472;7.850;2024-03-23T17:15:25;6.53;;;1.58;;
32760;SDS011;19126;47.472;7.850;2024-03-23T17:17:52;6.40;;;2.25;;
32760;SDS011;19126;47.472;7.850;2024-03-23T17:20:23;8.07;;;2.33;;
32760;SDS011;19126;47.472;7.850;2024-03-23T17:22:54;7.75;;;2.30;;
32760;SDS011;19126;47.472;7.850;2024-03-23T17:25:21;7.15;;;2.22;;
32760;SDS011;19126;47.472;7.850;2024-03-23T17:27:48;7.38;;;1.85;;
32760;SDS011;19126;47.472;7.850;2024-03-23T17:30:15;6.45;;;2.30;;
32760;SDS011;19126;47.472;7.850;2024-03-23T17:32:42;6.93;;;1.52;;
32760;SDS011;19126;47.472;7.850;2024-03-23T17:35:09;7.68;;;1.88;;
32760;SDS011;19126;47.472;7.850;2024-03-23T17:37:39;10.13;;;1.92;;
32760;SDS011;19126;47.472;7.850;2024-03-23T17:40:07;4.13;;;1.15;;
32760;SDS011;19126;47.472;7.850;2024-03-23T17:42:37;4.90;;;1.92;;
32760;SDS011;19126;47.472;7.850;2024-03-23T17:45:04;7.95;;;1.75;;
32760;SDS011;19126;47.472;7.850;2024-03-23T17:47:36;4.63;;;1.75;;
32760;SDS011;19126;47.472;7.850;2024-03-23T17:50:03;10.90;;;2.17;;
32760;SDS011;19126;47.472;7.850;2024-03-23T17:52:32;10.32;;;1.90;;
32760;SDS011;19126;47.472;7.850;2024-03-23T17:55:00;8.27;;;1.85;;
32760;SDS011;19126;47.472;7.850;2024-03-23T17:57:28;5.60;;;1.60;;
32760;SDS011;19126;47.472;7.850;2024-03-23T17:59:54;6.28;;;1.55;;
32760;SDS011;19126;47.472;7.850;2024-03-23T18:02:22;3.83;;;1.50;;
32760;SDS011;19126;47.472;7.850;2024-03-23T18:04:48;6.15;;;2.03;;
32760;SDS011;19126;47.472;7.850;2024-03-23T18:07:15;4.80;;;1.60;;
32760;SDS011;19126;47.472;7.850;2024-03-23T18:09:41;2.45;;;1.20;;
32760;SDS011;19126;47.472;7.850;2024-03-23T18:12:10;3.05;;;1.45;;
32760;SDS011;19126;47.472;7.850;2024-03-23T18:14:37;3.00;;;1.08;;
32760;SDS011;19126;47.472;7.850;2024-03-23T18:17:04;3.03;;;1.10;;
32760;SDS011;19126;47.472;7.850;2024-03-23T18:19:30;5.85;;;1.20;;
32760;SDS011;19126;47.472;7.850;2024-03-23T18:21:58;7.35;;;1.83;;
32760;SDS011;19126;47.472;7.850;2024-03-23T18:24:24;5.20;;;1.13;;
32760;SDS011;19126;47.472;7.850;2024-03-23T18:26:51;3.03;;;1.00;;
32760;SDS011;19126;47.472;7.850;2024-03-23T18:29:19;5.45;;;2.38;;
32760;SDS011;19126;47.472;7.850;2024-03-23T18:31:46;13.43;;;4.25;;
32760;SDS011;19126;47.472;7.850;2024-03-23T18:34:15;10.13;;;4.00;;
32760;SDS011;19126;47.472;7.850;2024-03-23T18:36:42;5.18;;;2.28;;
32760;SDS011;19126;47.472;7.850;2024-03-23T18:39:09;8.02;;;4.78;;
32760;SDS011;19126;47.472;7.850;2024-03-23T18:41:37;4.65;;;2.08;;
32760;SDS011;19126;47.472;7.850;2024-03-23T18:44:04;5.57;;;1.70;;
32760;SDS011;19126;47.472;7.850;2024-03-23T18:46:32;4.88;;;2.10;;
32760;SDS011;19126;47.472;7.850;2024-03-23T18:48:59;5.15;;;1.88;;
32760;SDS011;19126;47.472;7.850;2024-03-23T18:51:28;4.25;;;1.30;;
32760;SDS011;19126;47.472;7.850;2024-03-23T18:53:54;4.20;;;1.33;;
32760;SDS011;19126;47.472;7.850;2024-03-23T18:56:24;4.32;;;0.93;;
32760;SDS011;19126;47.472;7.850;2024-03-23T18:58:51;2.95;;;1.10;;
32760;SDS011;19126;47.472;7.850;2024-03-23T19:01:18;2.65;;;1.67;;
32760;SDS011;19126;47.472;7.850;2024-03-23T19:03:46;5.13;;;1.27;;
32760;SDS011;19126;47.472;7.850;2024-03-23T19:06:13;2.00;;;0.82;;
32760;SDS011;19126;47.472;7.850;2024-03-23T19:08:40;3.08;;;1.67;;
32760;SDS011;19126;47.472;7.850;2024-03-23T19:11:20;9.50;;;4.07;;
32760;SDS011;19126;47.472;7.850;2024-03-23T19:13:46;11.27;;;4.82;;
32760;SDS011;19126;47.472;7.850;2024-03-23T19:16:13;7.38;;;2.65;;
32760;SDS011;19126;47.472;7.850;2024-03-23T19:18:39;5.60;;;1.90;;
32760;SDS011;19126;47.472;7.850;2024-03-23T19:21:08;6.75;;;1.80;;
32760;SDS011;19126;47.472;7.850;2024-03-23T19:23:34;6.03;;;1.67;;
32760;SDS011;19126;47.472;7.850;2024-03-23T19:26:01;9.05;;;2.45;;
32760;SDS011;19126;47.472;7.850;2024-03-23T19:28:28;7.50;;;2.10;;
32760;SDS011;19126;47.472;7.850;2024-03-23T19:30:55;3.92;;;1.17;;
32760;SDS011;19126;47.472;7.850;2024-03-23T19:33:22;3.10;;;1.15;;
32760;SDS011;19126;47.472;7.850;2024-03-23T19:35:54;2.50;;;1.20;;
32760;SDS011;19126;47.472;7.850;2024-03-23T19:38:22;7.18;;;2.42;;
32760;SDS011;19126;47.472;7.850;2024-03-23T19:40:53;4.75;;;2.10;;
32760;SDS011;19126;47.472;7.850;2024-03-23T19:43:19;6.47;;;1.30;;
32760;SDS011;19126;47.472;7.850;2024-03-23T19:45:46;7.32;;;1.25;;
32760;SDS011;19126;47.472;7.850;2024-03-23T19:48:13;4.22;;;1.17;;
32760;SDS011;19126;47.472;7.850;2024-03-23T19:50:40;2.90;;;1.10;;
32760;SDS011;19126;47.472;7.850;2024-03-23T19:53:06;4.13;;;1.10;;
32760;SDS011;19126;47.472;7.850;2024-03-23T19:55:35;2.60;;;1.30;;
32760;SDS011;19126;47.472;7.850;2024-03-23T19:58:02;6.95;;;1.20;;
32760;SDS011;19126;47.472;7.850;2024-03-23T20:00:30;3.65;;;0.93;;
32760;SDS011;19126;47.472;7.850;2024-03-23T20:02:58;2.50;;;1.10;;
32760;SDS011;19126;47.472;7.850;2024-03-23T20:05:29;4.80;;;1.45;;
32760;SDS011;19126;47.472;7.850;2024-03-23T20:07:55;2.70;;;1.15;;
32760;SDS011;19126;47.472;7.850;2024-03-23T20:10:23;3.88;;;2.03;;
32760;SDS011;19126;47.472;7.850;2024-03-23T20:12:50;2.85;;;1.20;;
32760;SDS011;19126;47.472;7.850;2024-03-23T20:15:17;7.13;;;1.60;;
32760;SDS011;19126;47.472;7.850;2024-03-23T20:17:44;4.13;;;1.17;;
32760;SDS011;19126;47.472;7.850;2024-03-23T20:20:13;2.75;;;1.25;;
32760;SDS011;19126;47.472;7.850;2024-03-23T20:22:39;3.67;;;1.42;;
32760;SDS011;19126;47.472;7.850;2024-03-23T20:25:06;2.85;;;1.25;;
32760;SDS011;19126;47.472;7.850;2024-03-23T20:27:34;2.60;;;0.85;;
32760;SDS011;19126;47.472;7.850;2024-03-23T20:30:02;2.50;;;1.08;;
32760;SDS011;19126;47.472;7.850;2024-03-23T20:32:30;2.40;;;1.00;;
32760;SDS011;19126;47.472;7.850;2024-03-23T20:34:57;2.95;;;1.00;;
32760;SDS011;19126;47.472;7.850;2024-03-23T20:37:23;3.65;;;1.35;;
32760;SDS011;19126;47.472;7.850;2024-03-23T20:39:50;2.33;;;1.00;;
32760;SDS011;19126;47.472;7.850;2024-03-23T20:42:16;4.47;;;1.70;;
32760;SDS011;19126;47.472;7.850;2024-03-23T20:44:44;1.95;;;1.08;;
32760;SDS011;19126;47.472;7.850;2024-03-23T20:47:11;1.85;;;1.10;;
32760;SDS011;19126;47.472;7.850;2024-03-23T20:49:38;2.75;;;1.00;;
32760;SDS011;19126;47.472;7.850;2024-03-23T20:52:05;2.17;;;1.33;;
32760;SDS011;19126;47.472;7.850;2024-03-23T20:54:32;6.72;;;1.00;;
32760;SDS011;19126;47.472;7.850;2024-03-23T20:56:59;2.92;;;0.90;;
32760;SDS011;19126;47.472;7.850;2024-03-23T20:59:27;1.27;;;0.82;;
32760;SDS011;19126;47.472;7.850;2024-03-23T21:01:54;1.42;;;0.77;;
32760;SDS011;19126;47.472;7.850;2024-03-23T21:04:22;5.20;;;0.85;;
32760;SDS011;19126;47.472;7.850;2024-03-23T21:06:49;5.60;;;1.13;;
32760;SDS011;19126;47.472;7.850;2024-03-23T21:09:20;2.78;;;1.08;;
32760;SDS011;19126;47.472;7.850;2024-03-23T21:11:48;4.18;;;1.10;;
32760;SDS011;19126;47.472;7.850;2024-03-23T21:14:15;4.15;;;1.20;;
32760;SDS011;19126;47.472;7.850;2024-03-23T21:16:41;1.27;;;0.77;;
32760;SDS011;19126;47.472;7.850;2024-03-23T21:19:08;2.90;;;1.23;;
32760;SDS011;19126;47.472;7.850;2024-03-23T21:21:36;4.35;;;1.02;;
32760;SDS011;19126;47.472;7.850;2024-03-23T21:24:03;2.08;;;1.17;;
32760;SDS011;19126;47.472;7.850;2024-03-23T21:26:30;3.72;;;0.80;;
32760;SDS011;19126;47.472;7.850;2024-03-23T21:28:58;5.07;;;1.27;;
32760;SDS011;19126;47.472;7.850;2024-03-23T21:31:24;3.85;;;1.10;;
32760;SDS011;19126;47.472;7.850;2024-03-23T21:33:51;4.90;;;0.90;;
32760;SDS011;19126;47.472;7.850;2024-03-23T21:36:18;2.10;;;1.13;;
32760;SDS011;19126;47.472;7.850;2024-03-23T21:38:46;2.28;;;1.17;;
32760;SDS011;19126;47.472;7.850;2024-03-23T21:41:13;2.33;;;1.10;;
32760;SDS011;19126;47.472;7.850;2024-03-23T21:43:40;0.68;;;0.50;;
32760;SDS011;19126;47.472;7.850;2024-03-23T21:46:06;2.30;;;1.00;;
32760;SDS011;19126;47.472;7.850;2024-03-23T21:48:33;3.03;;;0.95;;
32760;SDS011;19126;47.472;7.850;2024-03-23T21:51:00;3.38;;;0.85;;
32760;SDS011;19126;47.472;7.850;2024-03-23T21:53:28;3.13;;;0.90;;
32760;SDS011;19126;47.472;7.850;2024-03-23T21:55:56;3.63;;;1.60;;
32760;SDS011;19126;47.472;7.850;2024-03-23T21:58:24;3.83;;;1.50;;
32760;SDS011;19126;47.472;7.850;2024-03-23T22:00:52;6.07;;;1.77;;
32760;SDS011;19126;47.472;7.850;2024-03-23T22:03:20;7.65;;;2.03;;
32760;SDS011;19126;47.472;7.850;2024-03-23T22:05:52;2.55;;;1.40;;
32760;SDS011;19126;47.472;7.850;2024-03-23T22:08:19;3.55;;;1.52;;
32760;SDS011;19126;47.472;7.850;2024-03-23T22:10:46;1.50;;;1.25;;